createdAt,value
2019-04-23T00:00:20.540Z,0.00
2019-04-23T00:02:23.270Z,0.00
2019-04-23T00:03:22.809Z,0.00
2019-04-23T00:04:24.100Z,0.00
2019-04-23T00:05:35.371Z,0.00
2019-04-23T00:06:23.354Z,0.00
2019-04-23T00:07:39.649Z,0.00
2019-04-23T00:08:29.196Z,0.00
2019-04-23T00:10:27.426Z,0.00
2019-04-23T00:11:25.559Z,0.00
2019-04-23T00:12:31.348Z,0.00
2019-04-23T00:13:24.222Z,0.00
2019-04-23T00:14:30.331Z,0.00
2019-04-23T00:15:33.565Z,0.00
2019-04-23T00:16:26.307Z,0.00
2019-04-23T00:17:32.038Z,0.00
2019-04-23T00:18:34.106Z,0.00
2019-04-23T00:19:24.744Z,0.00
2019-04-23T00:20:20.512Z,0.00
2019-04-23T00:21:28.202Z,0.00
2019-04-23T00:22:28.834Z,0.00
2019-04-23T00:23:25.826Z,0.00
2019-04-23T00:24:28.422Z,0.00
2019-04-23T00:27:29.229Z,0.00
2019-04-23T00:28:29.782Z,0.00
2019-04-23T00:29:32.785Z,0.00
2019-04-23T00:30:26.605Z,0.00
2019-04-23T00:31:25.716Z,0.00
2019-04-23T00:33:34.233Z,0.00
2019-04-23T00:34:25.022Z,0.00
2019-04-23T00:35:18.111Z,0.00
2019-04-23T00:36:32.073Z,0.00
2019-04-23T00:37:44.386Z,0.00
2019-04-23T00:38:28.365Z,0.00
2019-04-23T00:39:26.464Z,0.00
2019-04-23T00:40:25.878Z,0.00
2019-04-23T00:41:24.770Z,0.00
2019-04-23T00:42:29.552Z,0.00
2019-04-23T00:44:26.800Z,0.00
2019-04-23T00:45:28.725Z,0.00
2019-04-23T00:46:22.392Z,0.00
2019-04-23T00:47:29.449Z,0.00
2019-04-23T00:49:29.154Z,0.00
2019-04-23T00:50:33.889Z,0.00
2019-04-23T00:51:28.512Z,0.00
2019-04-23T00:52:26.667Z,0.00
2019-04-23T00:53:22.117Z,0.00
2019-04-23T00:54:26.228Z,0.00
2019-04-23T00:55:26.250Z,0.00
2019-04-23T00:56:38.327Z,0.00
2019-04-23T00:57:29.367Z,0.00
2019-04-23T00:58:27.869Z,0.00
2019-04-23T00:59:27.003Z,0.00
2019-04-23T01:00:46.016Z,0.00
2019-04-23T01:01:28.436Z,0.00
2019-04-23T01:02:29.727Z,0.00
2019-04-23T01:04:28.165Z,0.00
2019-04-23T01:05:27.723Z,0.00
2019-04-23T01:06:24.125Z,0.00
2019-04-23T01:07:24.674Z,0.00
2019-04-23T01:08:26.378Z,0.00
2019-04-23T01:09:34.698Z,0.00
2019-04-23T01:10:30.555Z,0.00
2019-04-23T01:12:31.970Z,0.00
2019-04-23T01:14:29.265Z,0.00
2019-04-23T01:15:42.736Z,0.00
2019-04-23T01:16:22.907Z,0.00
2019-04-23T01:17:32.257Z,0.00
2019-04-23T01:18:36.481Z,0.00
2019-04-23T01:19:31.604Z,0.00
2019-04-23T01:20:21.012Z,0.00
2019-04-23T01:21:03.603Z,0.00
2019-04-23T01:22:04.166Z,0.00
2019-04-23T01:23:03.614Z,0.00
2019-04-23T01:24:08.115Z,0.00
2019-04-23T01:25:13.571Z,0.00
2019-04-23T01:26:23.851Z,0.00
2019-04-23T01:28:25.276Z,0.00
2019-04-23T01:28:42.435Z,0.00
2019-04-23T01:29:28.323Z,0.00
2019-04-23T01:30:27.686Z,0.00
2019-04-23T01:31:31.146Z,0.00
2019-04-23T01:32:32.084Z,0.00
2019-04-23T01:33:34.109Z,0.00
2019-04-23T01:34:31.365Z,0.00
2019-04-23T01:35:26.971Z,0.00
2019-04-23T01:36:31.445Z,0.00
2019-04-23T01:37:30.464Z,0.00
2019-04-23T01:38:35.113Z,0.00
2019-04-23T01:39:27.824Z,0.00
2019-04-23T01:40:31.961Z,0.00
2019-04-23T01:41:28.966Z,0.00
2019-04-23T01:42:35.692Z,0.00
2019-04-23T01:43:30.130Z,0.00
2019-04-23T01:44:36.989Z,0.00
2019-04-23T01:47:33.619Z,0.00
2019-04-23T01:48:30.112Z,0.00
2019-04-23T01:49:39.581Z,0.00
2019-04-23T01:51:34.422Z,0.00
2019-04-23T01:52:33.102Z,0.00
2019-04-23T01:53:33.544Z,0.00
2019-04-23T01:54:30.382Z,0.00
2019-04-23T01:56:30.878Z,0.00
2019-04-23T01:57:33.865Z,0.00
2019-04-23T01:59:31.705Z,0.00
2019-04-23T02:01:32.847Z,0.00
2019-04-23T02:02:40.872Z,0.00
2019-04-23T02:03:48.509Z,0.00
2019-04-23T02:04:28.500Z,0.00
2019-04-23T02:06:31.424Z,0.00
2019-04-23T02:07:38.751Z,0.00
2019-04-23T02:08:26.294Z,0.00
2019-04-23T02:09:39.285Z,0.00
2019-04-23T02:10:41.611Z,0.00
2019-04-23T02:11:37.489Z,0.00
2019-04-23T02:12:33.330Z,0.00
2019-04-23T02:13:36.303Z,0.00
2019-04-23T02:14:29.631Z,0.00
2019-04-23T02:15:29.953Z,0.00
2019-04-23T02:16:33.412Z,0.00
2019-04-23T02:17:31.629Z,0.00
2019-04-23T02:18:32.129Z,0.00
2019-04-23T02:19:32.126Z,0.00
2019-04-23T02:21:35.208Z,0.00
2019-04-23T02:22:38.192Z,0.00
2019-04-23T02:23:31.455Z,0.00
2019-04-23T02:24:33.772Z,0.00
2019-04-23T02:27:36.318Z,0.00
2019-04-23T02:28:32.851Z,0.00
2019-04-23T02:29:43.638Z,0.00
2019-04-23T02:31:52.984Z,0.00
2019-04-23T02:32:37.723Z,0.00
2019-04-23T02:36:39.379Z,0.00
2019-04-23T02:39:49.800Z,0.00
2019-04-23T02:40:47.085Z,0.00
2019-04-23T02:41:34.669Z,0.00
2019-04-23T02:42:55.950Z,0.00
2019-04-23T02:43:59.584Z,0.00
2019-04-23T02:44:34.981Z,0.00
2019-04-23T02:46:31.203Z,0.00
2019-04-23T02:49:43.863Z,0.00
2019-04-23T02:50:47.840Z,0.00
2019-04-23T02:51:54.507Z,0.00
2019-04-23T02:53:46.634Z,0.00
2019-04-23T02:54:50.405Z,0.00
2019-04-23T02:55:43.608Z,0.00
2019-04-23T02:57:39.179Z,0.00
2019-04-23T02:59:57.797Z,0.00
2019-04-23T03:00:38.137Z,0.00
2019-04-23T03:01:58.352Z,0.00
2019-04-23T03:02:45.105Z,0.00
2019-04-23T03:03:42.781Z,0.00
2019-04-23T03:04:48.149Z,0.00
2019-04-23T03:05:46.483Z,0.00
2019-04-23T03:06:43.365Z,0.00
2019-04-23T03:08:42.715Z,0.00
2019-04-23T03:09:51.741Z,0.00
2019-04-23T03:10:43.298Z,0.00
2019-04-23T03:11:44.911Z,0.00
2019-04-23T03:12:41.518Z,0.00
2019-04-23T03:14:41.680Z,0.00
2019-04-23T03:16:51.463Z,4.00
2019-04-23T03:17:51.169Z,4.00
2019-04-23T03:18:45.867Z,0.00
2019-04-23T03:20:48.698Z,4.00
2019-04-23T03:21:48.920Z,4.00
2019-04-23T03:22:47.430Z,4.00
2019-04-23T03:24:00.031Z,4.00
2019-04-23T03:24:55.105Z,8.00
2019-04-23T03:25:33.969Z,8.00
2019-04-23T03:26:51.568Z,8.00
2019-04-23T03:31:28.006Z,16.00
2019-04-23T03:33:29.646Z,20.00
2019-04-23T03:36:14.029Z,32.00
2019-04-23T03:37:39.630Z,44.00
2019-04-23T03:38:45.672Z,52.00
2019-04-23T03:39:52.961Z,60.00
2019-04-23T03:40:39.195Z,68.00
2019-04-23T03:41:39.681Z,76.00
2019-04-23T03:43:39.136Z,100.00
2019-04-23T03:45:00.598Z,112.00
2019-04-23T03:48:41.644Z,172.00
2019-04-23T03:49:41.249Z,192.00
2019-04-23T03:51:43.337Z,232.00
2019-04-23T03:53:10.971Z,256.00
2019-04-23T03:57:37.998Z,384.00
2019-04-23T04:00:47.396Z,476.00
2019-04-23T04:01:38.403Z,508.00
2019-04-23T04:02:48.556Z,548.00
2019-04-23T04:04:04.359Z,580.00
2019-04-23T04:04:43.376Z,616.00
2019-04-23T04:05:56.149Z,656.00
2019-04-23T04:06:45.465Z,696.00
2019-04-23T04:08:35.954Z,776.00
2019-04-23T04:09:43.027Z,820.00
2019-04-23T04:10:44.225Z,860.00
2019-04-23T04:12:39.669Z,948.00
2019-04-23T04:13:42.959Z,992.00
2019-04-23T04:14:54.589Z,1036.00
2019-04-23T04:16:43.302Z,1128.00
2019-04-23T04:17:40.248Z,1172.00
2019-04-23T04:18:54.674Z,1220.00
2019-04-23T04:19:39.970Z,1268.00
2019-04-23T04:21:38.761Z,1364.00
2019-04-23T04:22:46.656Z,1412.00
2019-04-23T04:23:43.119Z,1464.00
2019-04-23T04:24:57.941Z,1512.00
2019-04-23T04:25:39.239Z,1556.00
2019-04-23T04:26:52.365Z,1608.00
2019-04-23T04:27:47.883Z,1660.00
2019-04-23T04:29:47.280Z,1760.00
2019-04-23T04:31:45.725Z,1856.00
2019-04-23T04:32:47.370Z,1896.00
2019-04-23T04:35:12.533Z,1988.00
2019-04-23T04:35:27.502Z,2036.00
2019-04-23T04:36:45.592Z,2076.00
2019-04-23T04:39:42.437Z,2208.00
2019-04-23T04:41:39.981Z,2296.00
2019-04-23T04:43:50.826Z,2384.00
2019-04-23T04:45:56.825Z,2472.00
2019-04-23T04:46:45.950Z,2508.00
2019-04-23T04:47:42.612Z,2548.00
2019-04-23T04:48:40.205Z,2596.00
2019-04-23T04:50:45.989Z,2664.00
2019-04-23T04:51:51.867Z,2708.00
2019-04-23T04:53:00.689Z,2756.00
2019-04-23T04:53:58.196Z,2796.00
2019-04-23T04:54:24.109Z,2828.00
2019-04-23T04:56:42.627Z,2904.00
2019-04-23T04:57:45.680Z,2952.00
2019-04-23T04:59:50.388Z,3020.00
2019-04-23T05:01:36.862Z,3096.00
2019-04-23T05:03:02.949Z,3136.00
2019-04-23T05:03:29.769Z,3172.00
2019-04-23T05:04:54.015Z,3200.00
2019-04-23T05:06:52.348Z,3272.00
2019-04-23T05:08:54.488Z,3344.00
2019-04-23T05:10:49.725Z,3400.00
2019-04-23T05:11:45.392Z,3424.00
2019-04-23T05:13:03.943Z,3460.00
2019-04-23T05:14:52.943Z,3524.00
2019-04-23T05:15:39.125Z,3560.00
2019-04-23T05:16:33.448Z,3580.00
2019-04-23T05:18:39.958Z,3652.00
2019-04-23T05:19:53.356Z,3668.00
2019-04-23T05:22:38.962Z,3780.00
2019-04-23T05:23:33.494Z,3820.00
2019-04-23T05:24:37.052Z,3868.00
2019-04-23T05:25:33.121Z,3888.00
2019-04-23T05:26:27.086Z,3924.00
2019-04-23T05:27:37.285Z,3932.00
2019-04-23T05:28:40.905Z,3980.00
2019-04-23T05:29:48.595Z,4004.00
2019-04-23T05:30:38.397Z,4056.00
2019-04-23T05:31:33.065Z,4084.00
2019-04-23T05:32:36.737Z,4100.00
2019-04-23T05:33:41.532Z,4144.00
2019-04-23T05:34:33.658Z,4176.00
2019-04-23T05:36:04.936Z,4220.00
2019-04-23T05:36:55.752Z,4256.00
2019-04-23T05:37:42.259Z,4280.00
2019-04-23T05:38:43.793Z,4316.00
2019-04-23T05:39:35.851Z,4376.00
2019-04-23T05:40:47.770Z,4512.00
2019-04-23T05:41:34.836Z,4488.00
2019-04-23T05:42:43.313Z,4572.00
2019-04-23T05:44:41.239Z,5360.00
2019-04-23T05:45:34.421Z,4900.00
2019-04-23T05:46:37.780Z,5164.00
2019-04-23T05:48:33.356Z,5568.00
2019-04-23T05:49:31.894Z,5244.00
2019-04-23T05:50:44.442Z,5660.00
2019-04-23T05:51:42.097Z,5072.00
2019-04-23T05:52:37.916Z,4876.00
2019-04-23T05:54:37.407Z,4904.00
2019-04-23T05:55:34.343Z,4804.00
2019-04-23T05:56:32.343Z,5368.00
2019-04-23T05:57:34.511Z,7436.00
2019-04-23T05:58:40.030Z,10556.00
2019-04-23T05:59:52.831Z,8864.00
2019-04-23T06:00:39.930Z,12328.00
2019-04-23T06:02:46.006Z,13364.00
2019-04-23T06:03:39.344Z,10788.00
2019-04-23T06:04:36.980Z,8524.00
2019-04-23T06:05:41.194Z,7768.00
2019-04-23T06:06:45.559Z,9024.00
2019-04-23T06:07:38.894Z,8188.00
2019-04-23T06:08:43.592Z,7140.00
2019-04-23T06:09:37.582Z,7044.00
2019-04-23T06:10:40.762Z,8504.00
2019-04-23T06:11:47.065Z,8520.00
2019-04-23T06:12:34.842Z,6388.00
2019-04-23T06:13:46.218Z,6140.00
2019-04-23T06:14:41.023Z,6208.00
2019-04-23T06:15:41.665Z,10672.00
2019-04-23T06:17:34.022Z,17920.00
2019-04-23T06:18:38.563Z,20320.00
2019-04-23T06:19:24.623Z,21280.00
2019-04-23T06:20:43.612Z,13268.00
2019-04-23T06:21:44.756Z,28864.00
2019-04-23T06:22:45.472Z,20640.00
2019-04-23T06:23:46.324Z,14296.00
2019-04-23T06:24:35.014Z,38944.00
2019-04-23T06:25:49.540Z,39360.00
2019-04-23T06:26:42.591Z,39200.00
2019-04-23T06:27:32.299Z,39328.00
2019-04-23T06:28:32.599Z,40256.00
2019-04-23T06:29:39.403Z,41824.00
2019-04-23T06:31:40.765Z,41856.00
2019-04-23T06:32:51.267Z,42112.00
2019-04-23T06:33:41.783Z,41792.00
2019-04-23T06:35:36.285Z,42112.00
2019-04-23T06:37:49.927Z,39648.00
2019-04-23T06:39:35.845Z,37664.00
2019-04-23T06:40:33.583Z,36480.00
2019-04-23T06:41:39.641Z,33888.00
2019-04-23T06:42:37.037Z,34624.00
2019-04-23T06:43:47.158Z,35616.00
2019-04-23T06:44:54.931Z,33568.00
2019-04-23T06:45:32.212Z,31392.00
2019-04-23T06:46:48.350Z,31872.00
2019-04-23T06:48:33.819Z,26144.00
2019-04-23T06:49:37.062Z,27008.00
2019-04-23T06:50:43.603Z,29696.00
2019-04-23T06:51:46.682Z,31776.00
2019-04-23T06:52:24.805Z,33344.00
2019-04-23T06:53:28.625Z,35072.00
2019-04-23T06:54:45.932Z,36960.00
2019-04-23T06:55:38.225Z,37728.00
2019-04-23T06:56:43.284Z,38016.00
2019-04-23T06:57:44.254Z,37024.00
2019-04-23T06:58:37.384Z,37152.00
2019-04-23T06:59:39.192Z,37056.00
2019-04-23T07:00:33.937Z,39136.00
2019-04-23T07:01:36.103Z,40288.00
2019-04-23T07:02:42.238Z,40064.00
2019-04-23T07:03:38.918Z,39712.00
2019-04-23T07:04:43.590Z,39872.00
2019-04-23T07:05:39.324Z,40992.00
2019-04-23T07:06:38.342Z,40768.00
2019-04-23T07:07:52.818Z,39968.00
2019-04-23T07:09:27.735Z,42912.00
2019-04-23T07:10:40.378Z,44512.00
2019-04-23T07:11:40.250Z,45440.00
2019-04-23T07:12:38.847Z,44320.00
2019-04-23T07:13:46.532Z,43776.00
2019-04-23T07:14:44.140Z,44768.00
2019-04-23T07:15:46.484Z,43040.00
2019-04-23T07:16:32.536Z,45248.00
2019-04-23T07:17:31.055Z,46464.00
2019-04-23T07:18:35.882Z,46048.00
2019-04-23T07:19:39.297Z,48224.00
2019-04-23T07:20:37.913Z,47008.00
2019-04-23T07:21:55.870Z,46880.00
2019-04-23T07:22:37.493Z,49024.00
2019-04-23T07:24:36.263Z,46592.00
2019-04-23T07:25:40.436Z,48352.00
2019-04-23T07:27:31.314Z,44128.00
2019-04-23T07:28:48.482Z,45248.00
2019-04-23T07:29:40.534Z,47232.00
2019-04-23T07:30:34.453Z,52064.00
2019-04-23T07:32:35.868Z,54304.00
2019-04-23T07:33:45.894Z,55040.00
2019-04-23T07:34:39.792Z,55296.00
2019-04-23T07:35:33.219Z,54976.00
2019-04-23T07:36:40.648Z,57376.00
2019-04-23T07:37:43.044Z,56672.00
2019-04-23T07:38:48.199Z,55712.00
2019-04-23T07:40:31.189Z,55264.00
2019-04-23T07:41:52.659Z,55488.00
2019-04-23T07:42:42.794Z,54240.00
2019-04-23T07:43:37.679Z,54208.00
2019-04-23T07:44:42.653Z,54560.00
2019-04-23T07:45:34.922Z,54400.00
2019-04-23T07:46:45.070Z,55008.00
2019-04-23T07:47:35.833Z,55584.00
2019-04-23T07:48:32.490Z,54080.00
2019-04-23T07:49:38.494Z,53472.00
2019-04-23T07:51:36.881Z,55328.00
2019-04-23T07:52:41.049Z,56160.00
2019-04-23T07:53:39.877Z,56960.00
2019-04-23T07:54:45.727Z,57152.00
2019-04-23T07:55:58.974Z,57664.00
2019-04-23T07:56:35.854Z,57856.00
2019-04-23T07:57:34.030Z,59328.00
2019-04-23T07:59:44.007Z,59680.00
2019-04-23T08:01:34.834Z,60992.00
2019-04-23T08:02:33.598Z,60800.00
2019-04-23T08:03:40.334Z,60192.00
2019-04-23T08:04:48.820Z,41120.00
2019-04-23T08:05:43.239Z,14304.00
2019-04-23T08:06:41.012Z,7080.00
2019-04-23T08:08:36.425Z,6992.00
2019-04-23T08:09:43.007Z,7084.00
2019-04-23T08:10:47.135Z,7048.00
2019-04-23T08:12:42.468Z,6976.00
2019-04-23T08:14:40.458Z,7052.00
2019-04-23T08:16:36.804Z,7096.00
2019-04-23T08:17:34.588Z,7108.00
2019-04-23T08:18:45.550Z,7124.00
2019-04-23T08:19:52.343Z,7112.00
2019-04-23T08:20:46.973Z,7076.00
2019-04-23T08:21:45.993Z,7080.00
2019-04-23T08:22:40.874Z,7084.00
2019-04-23T08:23:44.054Z,7096.00
2019-04-23T08:24:45.392Z,7104.00
2019-04-23T08:25:47.223Z,7012.00
2019-04-23T08:26:44.013Z,7084.00
2019-04-23T08:27:34.837Z,7100.00
2019-04-23T08:28:56.022Z,7132.00
2019-04-23T08:29:30.984Z,7156.00
2019-04-23T08:30:43.438Z,7216.00
2019-04-23T08:31:43.647Z,7128.00
2019-04-23T08:32:28.023Z,7100.00
2019-04-23T08:33:47.233Z,7088.00
2019-04-23T08:35:42.930Z,7108.00
2019-04-23T08:36:44.375Z,7180.00
2019-04-23T08:38:45.927Z,7172.00
2019-04-23T08:39:38.578Z,7136.00
2019-04-23T08:40:46.798Z,7188.00
2019-04-23T08:41:48.374Z,7236.00
2019-04-23T08:42:46.818Z,7288.00
2019-04-23T08:43:47.831Z,7260.00
2019-04-23T08:46:51.088Z,7228.00
2019-04-23T08:47:57.914Z,7192.00
2019-04-23T08:48:41.669Z,7256.00
2019-04-23T08:49:43.932Z,7264.00
2019-04-23T08:50:38.458Z,7268.00
2019-04-23T08:52:39.861Z,7300.00
2019-04-23T08:55:46.443Z,7224.00
2019-04-23T08:56:46.401Z,7236.00
2019-04-23T08:57:36.619Z,7244.00
2019-04-23T08:58:41.662Z,7268.00
2019-04-23T08:59:43.514Z,7300.00
2019-04-23T09:00:45.571Z,7324.00
2019-04-23T09:02:18.304Z,7340.00
2019-04-23T09:03:34.512Z,7376.00
2019-04-23T09:05:50.616Z,7332.00
2019-04-23T09:06:34.911Z,7344.00
2019-04-23T09:07:37.515Z,7384.00
2019-04-23T09:08:37.596Z,7356.00
2019-04-23T09:09:45.540Z,7368.00
2019-04-23T09:10:44.486Z,7464.00
2019-04-23T09:14:39.943Z,7556.00
2019-04-23T09:15:44.561Z,7624.00
2019-04-23T09:16:44.775Z,7648.00
2019-04-23T09:17:46.219Z,7664.00
2019-04-23T09:18:42.543Z,7692.00
2019-04-23T09:20:03.689Z,7836.00
2019-04-23T09:20:30.641Z,7804.00
2019-04-23T09:21:47.208Z,7768.00
2019-04-23T09:22:38.610Z,7824.00
2019-04-23T09:23:39.203Z,7832.00
2019-04-23T09:24:43.140Z,7808.00
2019-04-23T09:25:44.549Z,7788.00
2019-04-23T09:26:48.756Z,7828.00
2019-04-23T09:27:40.135Z,7808.00
2019-04-23T09:28:45.757Z,7772.00
2019-04-23T09:29:47.588Z,7612.00
2019-04-23T09:30:42.480Z,7744.00
2019-04-23T09:32:05.230Z,7804.00
2019-04-23T09:32:40.172Z,7888.00
2019-04-23T09:33:49.799Z,7896.00
2019-04-23T09:34:46.657Z,7956.00
2019-04-23T09:35:36.017Z,8060.00
2019-04-23T09:36:40.626Z,8148.00
2019-04-23T09:37:49.329Z,8240.00
2019-04-23T09:38:39.913Z,8268.00
2019-04-23T09:39:43.284Z,8352.00
2019-04-23T09:41:51.495Z,8408.00
2019-04-23T09:42:46.322Z,8344.00
2019-04-23T09:43:43.207Z,8344.00
2019-04-23T09:45:00.056Z,8268.00
2019-04-23T09:45:46.643Z,8328.00
2019-04-23T09:46:40.478Z,8368.00
2019-04-23T09:47:46.049Z,8376.00
2019-04-23T09:48:45.578Z,8344.00
2019-04-23T09:49:39.457Z,8404.00
2019-04-23T09:50:41.437Z,8424.00
2019-04-23T09:52:48.494Z,8528.00
2019-04-23T09:53:58.034Z,8628.00
2019-04-23T09:54:51.339Z,8740.00
2019-04-23T09:55:40.422Z,8804.00
2019-04-23T09:56:41.601Z,8920.00
2019-04-23T09:57:43.444Z,9008.00
2019-04-23T09:58:39.437Z,9144.00
2019-04-23T09:59:47.356Z,9432.00
2019-04-23T10:01:34.459Z,10216.00
2019-04-23T10:02:30.991Z,10660.00
2019-04-23T10:03:25.523Z,11376.00
2019-04-23T10:04:27.360Z,12904.00
2019-04-23T10:05:26.183Z,27680.00
2019-04-23T10:06:20.840Z,53184.00
2019-04-23T10:07:27.121Z,72096.00
2019-04-23T10:08:21.086Z,68416.00
2019-04-23T10:09:14.577Z,47456.00
2019-04-23T10:10:14.414Z,31360.00
2019-04-23T10:11:15.858Z,41824.00
2019-04-23T10:12:14.663Z,64000.00
2019-04-23T10:13:14.010Z,72896.00
2019-04-23T10:14:14.697Z,64416.00
2019-04-23T10:15:22.779Z,39520.00
2019-04-23T10:16:17.233Z,31520.00
2019-04-23T10:17:14.109Z,50528.00
2019-04-23T10:18:14.219Z,68992.00
2019-04-23T10:19:15.063Z,65440.00
2019-04-23T10:20:14.186Z,42816.00
2019-04-23T10:21:15.316Z,20096.00
2019-04-23T10:22:15.184Z,15580.00
2019-04-23T10:23:15.813Z,34048.00
2019-04-23T10:24:15.072Z,58400.00
2019-04-23T10:25:15.193Z,71808.00
2019-04-23T10:26:14.415Z,73664.00
2019-04-23T10:27:14.854Z,74048.00
2019-04-23T10:28:15.194Z,73248.00
2019-04-23T10:29:15.907Z,71712.00
2019-04-23T10:30:14.552Z,72448.00
2019-04-23T10:31:14.543Z,74048.00
2019-04-23T10:32:15.613Z,74240.00
2019-04-23T10:33:15.685Z,74848.00
2019-04-23T10:34:14.828Z,74976.00
2019-04-23T10:35:22.131Z,74016.00
2019-04-23T10:36:19.120Z,71712.00
2019-04-23T10:37:15.584Z,70464.00
2019-04-23T10:38:18.165Z,71520.00
2019-04-23T10:39:20.759Z,71776.00
2019-04-23T10:40:19.420Z,71360.00
2019-04-23T10:41:15.986Z,70400.00
2019-04-23T10:42:15.999Z,69280.00
2019-04-23T10:43:15.213Z,68416.00
2019-04-23T10:44:14.846Z,67808.00
2019-04-23T10:45:30.322Z,67904.00
2019-04-23T10:46:39.461Z,69024.00
2019-04-23T10:47:45.348Z,70560.00
2019-04-23T10:48:52.840Z,70752.00
2019-04-23T10:50:46.510Z,71104.00
2019-04-23T10:51:49.465Z,72160.00
2019-04-23T10:52:36.138Z,70688.00
2019-04-23T10:54:02.377Z,69888.00
2019-04-23T10:54:41.438Z,68544.00
2019-04-23T10:57:41.336Z,69824.00
2019-04-23T10:58:38.454Z,70496.00
2019-04-23T11:00:46.916Z,37824.00
2019-04-23T11:01:45.046Z,41216.00
2019-04-23T11:02:59.354Z,67744.00
2019-04-23T11:05:50.337Z,70048.00
2019-04-23T11:07:53.722Z,73504.00
2019-04-23T11:08:45.572Z,72896.00
2019-04-23T11:10:48.448Z,59712.00
2019-04-23T11:11:48.431Z,74880.00
2019-04-23T11:13:44.964Z,47168.00
2019-04-23T11:14:52.716Z,73920.00
2019-04-23T11:16:05.489Z,72320.00
2019-04-23T11:17:45.524Z,72128.00
2019-04-23T11:19:50.851Z,70528.00
2019-04-23T11:20:45.296Z,69280.00
2019-04-23T11:21:42.705Z,71808.00
2019-04-23T11:23:50.179Z,70688.00
2019-04-23T11:25:14.764Z,69856.00
2019-04-23T11:26:49.841Z,68480.00
2019-04-23T11:27:43.575Z,68320.00
2019-04-23T11:28:45.014Z,64704.00
2019-04-23T11:30:41.446Z,65952.00
2019-04-23T11:32:11.768Z,71264.00
2019-04-23T11:32:56.417Z,72800.00
2019-04-23T11:33:49.688Z,63584.00
2019-04-23T11:35:06.793Z,73440.00
2019-04-23T11:36:53.785Z,77056.00
2019-04-23T11:38:15.943Z,74368.00
2019-04-23T11:39:45.062Z,73568.00
2019-04-23T11:40:40.398Z,73728.00
2019-04-23T11:41:56.847Z,73952.00
2019-04-23T11:42:53.812Z,72128.00
2019-04-23T11:44:49.115Z,74752.00
2019-04-23T11:49:53.296Z,68032.00
2019-04-23T11:51:24.160Z,68736.00
2019-04-23T11:52:01.253Z,21120.00
2019-04-23T11:52:51.732Z,72512.00
2019-04-23T11:53:47.949Z,74720.00
2019-04-23T11:54:48.670Z,75168.00
2019-04-23T11:59:57.662Z,78240.00
2019-04-23T12:00:51.316Z,76800.00
2019-04-23T12:01:52.952Z,74816.00
2019-04-23T12:02:56.313Z,74080.00
2019-04-23T12:04:00.683Z,72832.00
2019-04-23T12:04:53.237Z,72256.00
2019-04-23T12:05:52.354Z,70464.00
2019-04-23T12:06:45.965Z,69920.00
2019-04-23T12:07:35.657Z,70144.00
2019-04-23T12:08:44.669Z,70400.00
2019-04-23T12:09:46.513Z,69504.00
2019-04-23T12:12:39.639Z,58080.00
2019-04-23T12:13:54.572Z,23072.00
2019-04-23T12:15:48.186Z,66528.00
2019-04-23T12:17:05.537Z,64320.00
2019-04-23T12:17:49.120Z,58944.00
2019-04-23T12:18:51.442Z,63968.00
2019-04-23T12:20:03.349Z,66272.00
2019-04-23T12:20:56.867Z,65856.00
2019-04-23T12:21:56.652Z,67232.00
2019-04-23T12:22:51.030Z,67936.00
2019-04-23T12:24:00.242Z,50624.00
2019-04-23T12:25:45.767Z,25472.00
2019-04-23T12:26:55.880Z,28000.00
2019-04-23T12:27:59.638Z,21184.00
2019-04-23T12:28:49.931Z,44576.00
2019-04-23T12:29:49.145Z,32800.00
2019-04-23T12:30:45.372Z,33984.00
2019-04-23T12:31:49.175Z,65440.00
2019-04-23T12:33:49.076Z,51008.00
2019-04-23T12:34:56.000Z,31520.00
2019-04-23T12:35:39.000Z,33120.00
2019-04-23T12:36:45.425Z,28128.00
2019-04-23T12:37:51.907Z,33184.00
2019-04-23T12:38:38.822Z,39840.00
2019-04-23T12:39:51.185Z,22400.00
2019-04-23T12:40:51.083Z,46688.00
2019-04-23T12:41:52.866Z,25472.00
2019-04-23T12:42:53.888Z,28320.00
2019-04-23T12:43:40.545Z,59296.00
2019-04-23T12:45:47.390Z,27968.00
2019-04-23T12:46:57.717Z,50720.00
2019-04-23T12:47:58.417Z,47712.00
2019-04-23T12:49:25.578Z,21888.00
2019-04-23T12:50:05.048Z,22816.00
2019-04-23T12:50:48.506Z,23712.00
2019-04-23T12:51:50.207Z,24736.00
2019-04-23T12:52:47.280Z,23936.00
2019-04-23T12:53:45.585Z,52736.00
2019-04-23T12:55:02.506Z,21504.00
2019-04-23T12:55:43.706Z,20608.00
2019-04-23T12:56:56.874Z,21920.00
2019-04-23T12:57:46.896Z,34112.00
2019-04-23T12:58:37.902Z,28832.00
2019-04-23T13:00:40.006Z,44992.00
2019-04-23T13:01:49.711Z,19680.00
2019-04-23T13:02:48.672Z,51200.00
2019-04-23T13:03:39.231Z,38880.00
2019-04-23T13:04:48.624Z,33536.00
2019-04-23T13:05:36.016Z,31712.00
2019-04-23T13:06:44.229Z,21312.00
2019-04-23T13:07:55.512Z,20576.00
2019-04-23T13:09:01.346Z,21920.00
2019-04-23T13:09:54.536Z,24416.00
2019-04-23T13:10:48.222Z,24448.00
2019-04-23T13:11:50.129Z,23680.00
2019-04-23T13:14:49.114Z,25344.00
2019-04-23T13:15:48.969Z,25600.00
2019-04-23T13:16:58.681Z,24384.00
2019-04-23T13:17:50.577Z,22816.00
2019-04-23T13:22:03.308Z,14752.00
2019-04-23T13:23:45.979Z,13860.00
2019-04-23T13:24:48.826Z,16736.00
2019-04-23T13:25:49.580Z,18048.00
2019-04-23T13:26:44.556Z,18880.00
2019-04-23T13:27:59.148Z,16476.00
2019-04-23T13:28:46.992Z,17536.00
2019-04-23T13:29:51.756Z,17984.00
2019-04-23T13:31:39.998Z,30944.00
2019-04-23T13:32:56.331Z,19584.00
2019-04-23T13:33:45.451Z,26560.00
2019-04-23T13:35:05.622Z,36320.00
2019-04-23T13:37:05.390Z,27168.00
2019-04-23T13:37:54.529Z,31360.00
2019-04-23T13:39:44.282Z,26944.00
2019-04-23T13:40:57.742Z,21536.00
2019-04-23T13:41:48.251Z,20992.00
2019-04-23T13:42:55.163Z,20352.00
2019-04-23T13:43:47.097Z,17792.00
2019-04-23T13:44:48.389Z,15184.00
2019-04-23T13:46:49.467Z,13956.00
2019-04-23T13:47:54.071Z,12840.00
2019-04-23T13:48:42.232Z,11620.00
2019-04-23T13:49:52.993Z,11084.00
2019-04-23T13:51:50.846Z,10360.00
2019-04-23T13:54:15.763Z,9832.00
2019-04-23T13:55:44.355Z,9780.00
2019-04-23T13:58:51.857Z,12672.00
2019-04-23T14:00:52.295Z,13436.00
2019-04-23T14:02:05.704Z,13900.00
2019-04-23T14:02:49.288Z,14632.00
2019-04-23T14:03:50.574Z,15236.00
2019-04-23T14:04:52.239Z,15256.00
2019-04-23T14:05:49.362Z,14480.00
2019-04-23T14:06:49.477Z,13360.00
2019-04-23T14:07:57.166Z,12372.00
2019-04-23T14:08:53.597Z,12576.00
2019-04-23T14:09:57.132Z,13824.00
2019-04-23T14:11:04.532Z,15904.00
2019-04-23T14:11:40.023Z,16424.00
2019-04-23T14:13:08.859Z,17664.00
2019-04-23T14:13:56.752Z,16840.00
2019-04-23T14:15:54.109Z,14596.00
2019-04-23T14:16:54.313Z,14868.00
2019-04-23T14:18:11.495Z,15552.00
2019-04-23T14:19:38.319Z,17312.00
2019-04-23T14:20:53.231Z,16576.00
2019-04-23T14:21:46.950Z,13852.00
2019-04-23T14:23:00.009Z,10884.00
2019-04-23T14:26:00.209Z,9444.00
2019-04-23T14:26:48.011Z,10024.00
2019-04-23T14:28:01.292Z,10724.00
2019-04-23T14:28:44.665Z,10612.00
2019-04-23T14:30:01.200Z,10404.00
2019-04-23T14:30:54.252Z,10168.00
2019-04-23T14:32:00.869Z,9612.00
2019-04-23T14:32:54.432Z,8116.00
2019-04-23T14:34:01.286Z,6856.00
2019-04-23T14:37:05.975Z,7484.00
2019-04-23T14:38:01.637Z,8292.00
2019-04-23T14:38:49.724Z,9000.00
2019-04-23T14:39:58.934Z,8616.00
2019-04-23T14:41:53.939Z,7236.00
2019-04-23T14:43:04.419Z,7096.00
2019-04-23T14:43:56.150Z,6864.00
2019-04-23T14:45:02.688Z,6408.00
2019-04-23T14:48:00.824Z,5880.00
2019-04-23T14:48:52.831Z,5060.00
2019-04-23T14:50:54.750Z,4520.00
2019-04-23T14:51:49.755Z,4512.00
2019-04-23T14:52:57.009Z,4552.00
2019-04-23T14:53:48.684Z,4220.00
2019-04-23T14:55:22.678Z,3976.00
2019-04-23T14:55:58.135Z,3916.00
2019-04-23T14:56:52.705Z,3768.00
2019-04-23T14:58:06.097Z,3428.00
2019-04-23T14:59:57.361Z,3200.00
2019-04-23T15:01:49.010Z,2764.00
2019-04-23T15:02:57.213Z,2852.00
2019-04-23T15:04:54.504Z,2716.00
2019-04-23T15:06:05.351Z,2628.00
2019-04-23T15:07:15.659Z,2392.00
2019-04-23T15:07:51.278Z,2228.00